Time;durP1;ratioP1;P1;durP2;ratioP2;P2;SDS_P1;SDS_P2;PMS_P1;PMS_P2;Temp;Humidity;BMP_temperature;BMP_pressure;BME280_temperature;BME280_humidity;BME280_pressure;Samples;Min_cycle;Max_cycle;Signal;HPM_P1;HPM_P2
2024/01/03 00:00:25;;;;;;;1.67;0.60;;;9.80;99.90;;;;;;5091122;28;21283;-73
2024/01/03 00:02:50;;;;;;;2.63;0.50;;;9.80;99.90;;;;;;5090964;28;20796;-73
2024/01/03 00:05:25;;;;;;;0.73;0.40;;;9.80;99.90;;;;;;5091041;28;20511;-73
2024/01/03 00:07:51;;;;;;;0.70;0.40;;;9.80;99.90;;;;;;5091093;28;20682;-73
2024/01/03 00:10:40;;;;;;;1.83;0.60;;;9.90;99.90;;;;;;5089502;28;20467;-73
2024/01/03 00:13:26;;;;;;;0.70;0.40;;;9.90;99.90;;;;;;5089147;28;21413;-73
2024/01/03 00:16:04;;;;;;;1.20;0.50;;;9.90;99.90;;;;;;5090499;28;20424;-73
2024/01/03 00:18:41;;;;;;;1.77;0.60;;;9.90;99.90;;;;;;5089311;28;20443;-73
2024/01/03 00:21:10;;;;;;;0.90;0.50;;;9.80;99.90;;;;;;5089799;28;20413;-73
2024/01/03 00:23:43;;;;;;;1.43;0.63;;;9.80;99.90;;;;;;5091115;28;20423;-72
2024/01/03 00:26:10;;;;;;;4.00;0.53;;;9.80;99.90;;;;;;5089495;28;21066;-72
2024/01/03 00:28:36;;;;;;;4.83;1.23;;;9.80;99.90;;;;;;5090579;28;20513;-73
2024/01/03 00:31:02;;;;;;;5.03;0.90;;;9.80;99.90;;;;;;5090554;28;20450;-73
2024/01/03 00:33:28;;;;;;;0.90;0.40;;;9.70;99.90;;;;;;5090473;28;20546;-72
2024/01/03 00:35:55;;;;;;;3.90;0.87;;;9.70;99.90;;;;;;5090124;28;20175;-73
2024/01/03 00:38:20;;;;;;;0.80;0.63;;;9.60;99.90;;;;;;5090638;28;20516;-73
2024/01/03 00:40:59;;;;;;;3.00;0.70;;;9.70;99.90;;;;;;5089150;28;20511;-73
2024/01/03 00:43:25;;;;;;;1.10;0.70;;;9.60;99.90;;;;;;5088961;28;20655;-73
2024/01/03 00:45:51;;;;;;;1.77;0.50;;;9.60;99.90;;;;;;5071848;28;20427;-73
2024/01/03 00:48:17;;;;;;;3.70;0.60;;;9.60;99.90;;;;;;5090125;28;20668;-73
2024/01/03 00:50:43;;;;;;;2.40;0.60;;;9.60;99.90;;;;;;5089734;28;20481;-73
2024/01/03 00:53:10;;;;;;;5.80;0.80;;;9.60;99.90;;;;;;5088102;28;20995;-74
2024/01/03 00:55:36;;;;;;;1.27;0.80;;;9.60;99.90;;;;;;5089500;28;20171;-73
2024/01/03 00:58:02;;;;;;;1.83;0.80;;;9.60;99.90;;;;;;5089349;28;20418;-74
2024/01/03 01:00:28;;;;;;;1.93;0.50;;;9.60;99.90;;;;;;5088623;28;20935;-73
2024/01/03 01:02:54;;;;;;;1.37;0.53;;;9.60;99.90;;;;;;5089730;28;20416;-74
2024/01/03 01:05:20;;;;;;;0.73;0.47;;;9.60;99.90;;;;;;5088679;28;20858;-74
2024/01/03 01:07:45;;;;;;;1.20;0.40;;;9.60;99.90;;;;;;5090032;28;20216;-73
2024/01/03 01:10:11;;;;;;;0.70;0.40;;;9.60;99.90;;;;;;5088609;28;20428;-73
2024/01/03 01:12:37;;;;;;;1.00;0.50;;;9.50;99.90;;;;;;5089847;28;20314;-73
2024/01/03 01:15:02;;;;;;;1.00;0.60;;;9.50;99.90;;;;;;5088466;28;20179;-73
2024/01/03 01:17:28;;;;;;;1.47;0.40;;;9.50;99.90;;;;;;5088168;28;20216;-73
2024/01/03 01:19:53;;;;;;;2.93;0.60;;;9.50;99.90;;;;;;5088456;28;20198;-74
2024/01/03 01:22:19;;;;;;;6.70;0.80;;;9.50;99.90;;;;;;5089644;28;20192;-73
2024/01/03 01:24:45;;;;;;;0.70;0.50;;;9.40;99.90;;;;;;5089483;28;20186;-73
2024/01/03 01:27:10;;;;;;;0.90;0.67;;;9.40;99.90;;;;;;5089320;28;20281;-73
2024/01/03 01:29:36;;;;;;;0.80;0.50;;;9.50;99.90;;;;;;5087811;28;20194;-73
2024/01/03 01:32:02;;;;;;;1.53;0.60;;;9.50;99.90;;;;;;5087923;28;20222;-73
2024/01/03 01:34:28;;;;;;;1.47;0.63;;;9.50;99.90;;;;;;5089670;28;20187;-73
2024/01/03 01:36:53;;;;;;;1.30;0.60;;;9.60;99.90;;;;;;5089189;28;20970;-74
2024/01/03 01:39:19;;;;;;;0.90;0.70;;;9.50;99.90;;;;;;5087933;28;20274;-74
2024/01/03 01:41:44;;;;;;;1.63;0.60;;;9.60;99.90;;;;;;5087315;28;20187;-73
2024/01/03 01:44:10;;;;;;;0.80;0.50;;;9.50;99.90;;;;;;5089707;28;20195;-73
2024/01/03 01:46:37;;;;;;;0.70;0.40;;;9.50;99.90;;;;;;5087073;28;20301;-73
2024/01/03 01:49:08;;;;;;;1.23;0.40;;;9.40;99.90;;;;;;5087582;28;20248;-73
2024/01/03 01:51:35;;;;;;;2.63;0.70;;;9.30;99.90;;;;;;5088542;28;20456;-74
2024/01/03 01:54:02;;;;;;;1.33;0.40;;;9.20;99.90;;;;;;5088662;28;20419;-74
2024/01/03 01:56:29;;;;;;;2.00;0.40;;;9.20;99.90;;;;;;5088438;28;20432;-74
2024/01/03 01:58:55;;;;;;;2.03;0.50;;;9.10;99.90;;;;;;5088475;28;20452;-74
2024/01/03 02:01:22;;;;;;;0.80;0.47;;;9.10;99.90;;;;;;5086978;28;20520;-73
2024/01/03 02:03:48;;;;;;;0.77;0.50;;;9.00;99.90;;;;;;5088696;28;20420;-73
2024/01/03 02:06:15;;;;;;;1.00;0.50;;;8.90;99.90;;;;;;5087024;28;20557;-74
2024/01/03 02:08:41;;;;;;;0.70;0.47;;;8.80;99.90;;;;;;5088684;28;20458;-74
2024/01/03 02:11:07;;;;;;;2.80;0.40;;;8.80;99.90;;;;;;5090612;28;20418;-74
2024/01/03 02:13:33;;;;;;;0.70;0.40;;;8.80;99.90;;;;;;5090955;28;20865;-74
2024/01/03 02:15:58;;;;;;;4.77;0.50;;;8.70;99.90;;;;;;5092390;28;20202;-73
2024/01/03 02:18:26;;;;;;;0.70;0.40;;;8.70;99.90;;;;;;5092516;28;20265;-73
2024/01/03 02:20:55;;;;;;;0.70;0.30;;;8.60;99.90;;;;;;5091242;28;20973;-73
2024/01/03 02:23:21;;;;;;;0.70;0.40;;;8.60;99.90;;;;;;5092717;28;20432;-73
2024/01/03 02:25:46;;;;;;;0.80;0.40;;;8.60;99.90;;;;;;5092316;28;20427;-73
2024/01/03 02:28:12;;;;;;;2.00;0.40;;;8.60;99.90;;;;;;5091057;28;20431;-73
2024/01/03 02:30:41;;;;;;;0.80;0.40;;;8.60;99.90;;;;;;5092469;28;20711;-72
2024/01/03 02:33:07;;;;;;;0.67;0.33;;;8.60;99.90;;;;;;5092779;28;20220;-73
2024/01/03 02:35:32;;;;;;;0.90;0.40;;;8.60;99.90;;;;;;5092656;28;20409;-72
2024/01/03 02:37:58;;;;;;;1.40;0.50;;;8.70;99.90;;;;;;5092389;28;20211;-73
2024/01/03 02:40:24;;;;;;;1.90;0.50;;;8.70;99.90;;;;;;5092830;28;20187;-72
2024/01/03 02:42:49;;;;;;;1.20;0.50;;;8.70;99.90;;;;;;5092700;28;20183;-73
2024/01/03 02:45:15;;;;;;;0.70;0.40;;;8.80;99.90;;;;;;5092828;28;20195;-73
2024/01/03 02:47:40;;;;;;;0.80;0.40;;;8.80;99.90;;;;;;5091375;28;20216;-72
2024/01/03 02:50:07;;;;;;;1.10;0.47;;;8.80;99.90;;;;;;5074684;28;20406;-74
2024/01/03 02:52:34;;;;;;;1.20;0.50;;;8.80;99.90;;;;;;5091270;28;20206;-74
2024/01/03 02:55:00;;;;;;;0.87;0.50;;;8.90;99.90;;;;;;5092448;28;20447;-74
2024/01/03 02:57:26;;;;;;;1.57;0.57;;;8.90;99.90;;;;;;5092224;28;20456;-74
2024/01/03 02:59:52;;;;;;;1.50;0.77;;;9.00;99.90;;;;;;5092123;28;20936;-74
2024/01/03 03:02:17;;;;;;;0.80;0.40;;;9.00;99.90;;;;;;5090661;28;20178;-74
2024/01/03 03:04:43;;;;;;;4.30;0.50;;;9.10;99.90;;;;;;5091733;28;20183;-74
2024/01/03 03:07:09;;;;;;;1.37;0.60;;;9.20;99.90;;;;;;5091794;28;20211;-73
2024/01/03 03:09:35;;;;;;;0.70;0.40;;;9.10;99.90;;;;;;5091737;28;20434;-74
2024/01/03 03:12:00;;;;;;;1.53;0.40;;;9.10;99.90;;;;;;5090384;28;20651;-73
2024/01/03 03:14:26;;;;;;;0.90;0.50;;;9.10;99.90;;;;;;5091763;28;20196;-74
2024/01/03 03:16:52;;;;;;;0.70;0.40;;;9.00;99.90;;;;;;5091751;28;20236;-73
2024/01/03 03:19:17;;;;;;;0.70;0.40;;;9.10;99.90;;;;;;5090402;28;20258;-74
2024/01/03 03:21:43;;;;;;;1.63;0.50;;;9.10;99.90;;;;;;5091415;28;20186;-73
2024/01/03 03:24:09;;;;;;;0.90;0.50;;;9.10;99.90;;;;;;5090092;28;20236;-73
2024/01/03 03:26:34;;;;;;;1.63;0.60;;;9.20;99.90;;;;;;5090135;28;20198;-73
2024/01/03 03:29:00;;;;;;;0.80;0.50;;;9.20;99.90;;;;;;5091757;28;20427;-73
2024/01/03 03:31:25;;;;;;;0.90;0.40;;;9.20;99.90;;;;;;5090374;28;20213;-73
2024/01/03 03:33:51;;;;;;;1.10;0.50;;;9.20;99.90;;;;;;5090135;28;20266;-73
2024/01/03 03:36:17;;;;;;;4.23;0.53;;;9.20;99.90;;;;;;5091487;28;20216;-73
2024/01/03 03:38:42;;;;;;;1.47;0.40;;;9.20;99.90;;;;;;5091550;28;20788;-73
2024/01/03 03:41:12;;;;;;;1.20;0.50;;;9.20;99.90;;;;;;5073481;28;20657;-73
2024/01/03 03:43:39;;;;;;;1.77;0.60;;;9.20;99.90;;;;;;5091639;28;20698;-73
2024/01/03 03:46:08;;;;;;;2.50;0.50;;;9.20;99.90;;;;;;5090130;28;20566;-74
2024/01/03 03:48:34;;;;;;;1.80;0.53;;;9.10;99.90;;;;;;5091410;28;20923;-74
2024/01/03 03:51:03;;;;;;;1.97;0.60;;;9.10;99.90;;;;;;5091440;28;20416;-73
2024/01/03 03:53:29;;;;;;;1.20;0.70;;;9.10;99.90;;;;;;5089834;28;20883;-73
2024/01/03 03:55:55;;;;;;;2.27;0.50;;;9.10;99.90;;;;;;5091224;28;20418;-73
2024/01/03 03:58:20;;;;;;;1.73;0.70;;;9.10;99.90;;;;;;5091222;28;20178;-73
2024/01/03 04:00:46;;;;;;;1.40;0.50;;;9.10;99.90;;;;;;5090304;28;20559;-73
2024/01/03 04:03:12;;;;;;;1.50;0.53;;;9.00;99.90;;;;;;5089539;28;20209;-74
2024/01/03 04:05:38;;;;;;;1.33;0.70;;;9.10;99.90;;;;;;5090727;28;20913;-73
2024/01/03 04:08:04;;;;;;;5.90;0.73;;;9.10;99.90;;;;;;5090611;28;20285;-73
2024/01/03 04:10:30;;;;;;;2.60;0.60;;;9.10;99.90;;;;;;5090519;28;20792;-73
2024/01/03 04:12:56;;;;;;;0.90;0.50;;;9.10;99.90;;;;;;5089189;28;20479;-72
2024/01/03 04:15:22;;;;;;;4.30;0.70;;;9.00;99.90;;;;;;5090386;28;20179;-72
2024/01/03 04:17:48;;;;;;;1.80;0.50;;;9.00;99.90;;;;;;5090212;28;20516;-73
2024/01/03 04:20:14;;;;;;;1.47;0.60;;;9.10;99.90;;;;;;5090541;28;20599;-73
2024/01/03 04:22:43;;;;;;;1.57;0.50;;;9.00;99.90;;;;;;5090402;28;20208;-73
2024/01/03 04:25:09;;;;;;;1.87;0.70;;;9.00;99.90;;;;;;5088974;28;20501;-74
2024/01/03 04:27:35;;;;;;;1.57;0.60;;;9.00;99.90;;;;;;5089409;28;20478;-75
2024/01/03 04:30:01;;;;;;;1.47;0.50;;;9.00;99.90;;;;;;5089507;28;20428;-74
2024/01/03 04:32:27;;;;;;;3.93;0.90;;;9.00;99.90;;;;;;5089551;28;20472;-73
2024/01/03 04:34:53;;;;;;;1.23;0.60;;;9.00;99.90;;;;;;5089558;28;20428;-74
2024/01/03 04:37:18;;;;;;;0.70;0.50;;;9.00;99.90;;;;;;5072179;28;20233;-73
2024/01/03 04:39:44;;;;;;;0.80;0.50;;;8.90;99.90;;;;;;5090150;28;20843;-73
2024/01/03 04:42:09;;;;;;;1.33;0.50;;;9.00;99.90;;;;;;5089700;28;20231;-74
2024/01/03 04:44:36;;;;;;;1.70;0.83;;;9.00;99.90;;;;;;5089769;28;20656;-73
2024/01/03 04:47:02;;;;;;;1.43;0.73;;;9.00;99.90;;;;;;5088365;28;20205;-74
2024/01/03 04:49:29;;;;;;;1.17;0.60;;;9.00;99.90;;;;;;5088229;28;20812;-74
2024/01/03 04:51:54;;;;;;;3.33;0.80;;;9.10;99.90;;;;;;5089608;28;20674;-74
2024/01/03 04:54:20;;;;;;;4.60;0.60;;;9.00;99.90;;;;;;5089545;28;20507;-74
2024/01/03 04:56:47;;;;;;;6.30;0.67;;;9.00;99.90;;;;;;5070954;28;20441;-74
2024/01/03 04:59:12;;;;;;;1.27;0.60;;;9.00;99.90;;;;;;5089815;28;20557;-73
2024/01/03 05:01:39;;;;;;;1.13;0.60;;;9.00;99.90;;;;;;5087977;28;20420;-72
2024/01/03 05:04:05;;;;;;;1.50;0.60;;;8.90;99.90;;;;;;5089373;28;20281;-73
2024/01/03 05:06:30;;;;;;;0.80;0.50;;;8.90;99.90;;;;;;5087833;28;20561;-73
2024/01/03 05:08:56;;;;;;;2.20;0.50;;;8.90;99.90;;;;;;5089484;28;20183;-73
2024/01/03 05:11:21;;;;;;;0.87;0.67;;;8.80;99.90;;;;;;5089495;28;20215;-73
2024/01/03 05:13:47;;;;;;;2.80;0.60;;;8.80;99.90;;;;;;5088390;28;20657;-74
2024/01/03 05:16:13;;;;;;;1.77;0.70;;;8.80;99.90;;;;;;5088301;28;20692;-73
2024/01/03 05:18:38;;;;;;;2.53;0.67;;;8.80;99.90;;;;;;5089444;28;20187;-73
2024/01/03 05:21:05;;;;;;;1.60;0.67;;;8.80;99.90;;;;;;5089232;28;20503;-73
2024/01/03 05:23:31;;;;;;;3.23;0.60;;;8.90;99.90;;;;;;5089171;28;20654;-73
2024/01/03 05:25:56;;;;;;;1.97;0.60;;;8.90;99.90;;;;;;5087271;28;20435;-74
2024/01/03 05:28:22;;;;;;;1.73;0.67;;;8.90;99.90;;;;;;5087385;28;20214;-74
2024/01/03 05:30:48;;;;;;;2.70;0.70;;;8.90;99.90;;;;;;5088749;28;20179;-74
2024/01/03 05:33:13;;;;;;;1.20;0.80;;;8.90;99.90;;;;;;5053908;28;20246;-74
2024/01/03 05:35:39;;;;;;;7.30;0.97;;;8.90;99.90;;;;;;5088536;28;20194;-74
2024/01/03 05:38:04;;;;;;;2.80;0.80;;;8.90;99.90;;;;;;5087495;28;20177;-73
2024/01/03 05:40:30;;;;;;;5.50;0.80;;;8.90;99.90;;;;;;5088679;28;20174;-74
2024/01/03 05:42:55;;;;;;;1.20;0.80;;;8.90;99.90;;;;;;5087417;28;20249;-73
2024/01/03 05:45:21;;;;;;;2.70;0.80;;;8.90;99.90;;;;;;5087270;28;20193;-74
2024/01/03 05:47:47;;;;;;;2.33;0.63;;;9.00;99.90;;;;;;5088792;28;20277;-73
2024/01/03 05:50:12;;;;;;;2.23;0.67;;;9.00;99.90;;;;;;5088672;28;20707;-73
2024/01/03 05:52:38;;;;;;;1.80;0.60;;;9.00;99.90;;;;;;5087336;28;20214;-73
2024/01/03 05:55:06;;;;;;;2.30;0.90;;;9.00;99.90;;;;;;5087324;28;20258;-73
2024/01/03 05:57:32;;;;;;;2.07;0.80;;;8.90;99.90;;;;;;5087300;28;20317;-74
2024/01/03 05:59:58;;;;;;;2.10;0.80;;;8.90;99.90;;;;;;5088694;28;20500;-74
2024/01/03 06:02:23;;;;;;;1.33;0.50;;;8.90;99.90;;;;;;5087215;28;20429;-73
2024/01/03 06:04:49;;;;;;;0.90;0.60;;;8.90;99.90;;;;;;5070459;28;20190;-74
2024/01/03 06:07:15;;;;;;;5.00;0.50;;;8.80;99.90;;;;;;5070448;28;20209;-72
2024/01/03 06:09:40;;;;;;;1.10;0.60;;;8.80;99.90;;;;;;5088789;28;20189;-73
2024/01/03 06:12:06;;;;;;;5.80;0.60;;;8.80;99.90;;;;;;5088978;28;20685;-73
2024/01/03 06:14:32;;;;;;;1.70;0.60;;;8.80;99.90;;;;;;5089192;28;20182;-74
2024/01/03 06:16:57;;;;;;;0.70;0.40;;;8.70;99.90;;;;;;5088147;28;20439;-74
2024/01/03 06:19:23;;;;;;;4.60;0.53;;;8.70;99.90;;;;;;5087886;28;20178;-74
2024/01/03 06:21:48;;;;;;;1.73;0.60;;;8.80;99.90;;;;;;5088982;28;20615;-74
2024/01/03 06:24:14;;;;;;;1.33;0.50;;;8.60;99.90;;;;;;5087413;28;20193;-74
2024/01/03 06:26:39;;;;;;;4.93;0.60;;;8.80;99.90;;;;;;5088433;28;20210;-74
2024/01/03 06:29:05;;;;;;;1.90;0.50;;;8.90;99.90;;;;;;5088875;28;20182;-74
2024/01/03 06:31:31;;;;;;;1.93;0.60;;;8.90;99.90;;;;;;5088560;28;20178;-74
2024/01/03 06:33:56;;;;;;;1.40;0.60;;;8.90;99.90;;;;;;5088468;28;20198;-74
2024/01/03 06:36:22;;;;;;;1.40;0.50;;;8.80;99.90;;;;;;5088774;28;20295;-74
2024/01/03 06:38:48;;;;;;;2.40;0.50;;;8.80;99.90;;;;;;5087680;28;20635;-74
2024/01/03 06:41:14;;;;;;;0.90;0.40;;;8.90;99.90;;;;;;5088822;28;20176;-74
2024/01/03 06:43:39;;;;;;;1.13;0.53;;;8.90;99.90;;;;;;5087360;28;20637;-74
2024/01/03 06:46:05;;;;;;;1.00;0.40;;;9.00;99.90;;;;;;5087481;28;20210;-74
2024/01/03 06:48:31;;;;;;;1.23;0.60;;;8.90;99.90;;;;;;5087464;28;20178;-74
2024/01/03 06:50:56;;;;;;;2.10;0.67;;;8.90;99.90;;;;;;5087283;28;20194;-72
2024/01/03 06:53:22;;;;;;;4.00;0.70;;;8.90;99.90;;;;;;5070468;28;20210;-73
2024/01/03 06:55:48;;;;;;;6.50;0.80;;;8.90;99.90;;;;;;5087529;28;20185;-74
2024/01/03 06:58:13;;;;;;;1.43;0.50;;;8.90;99.90;;;;;;5089259;28;20576;-74
2024/01/03 07:00:39;;;;;;;1.67;0.60;;;8.90;99.90;;;;;;5092221;28;20193;-74
2024/01/03 07:03:05;;;;;;;5.40;1.10;;;8.90;99.90;;;;;;5090740;28;20273;-73
2024/01/03 07:05:31;;;;;;;1.97;0.87;;;8.90;99.90;;;;;;5091902;28;20669;-73
2024/01/03 07:07:58;;;;;;;2.10;0.63;;;8.80;99.90;;;;;;5092036;28;20447;-74
2024/01/03 07:10:31;;;;;;;1.73;0.90;;;8.90;99.90;;;;;;5092111;28;20563;-73
2024/01/03 07:12:59;;;;;;;2.10;0.47;;;9.00;99.90;;;;;;5074869;28;20839;-73
2024/01/03 07:15:28;;;;;;;1.43;0.50;;;9.10;99.90;;;;;;5092095;28;20898;-74
2024/01/03 07:17:59;;;;;;;1.33;0.50;;;9.10;99.90;;;;;;5091688;28;21164;-73
2024/01/03 07:20:25;;;;;;;2.23;0.60;;;9.10;99.90;;;;;;5091573;28;20898;-73
2024/01/03 07:22:51;;;;;;;2.10;0.60;;;9.10;99.90;;;;;;5091548;28;20409;-73
2024/01/03 07:25:17;;;;;;;3.30;1.30;;;9.10;99.90;;;;;;5089680;28;20778;-74
2024/01/03 07:27:43;;;;;;;1.53;0.73;;;9.10;99.90;;;;;;5091329;28;20440;-74
2024/01/03 07:30:10;;;;;;;1.90;0.50;;;8.90;99.90;;;;;;5089914;28;20520;-74
2024/01/03 07:32:36;;;;;;;0.80;0.50;;;9.20;99.90;;;;;;5089499;28;21137;-73
2024/01/03 07:35:02;;;;;;;1.33;0.60;;;9.40;99.90;;;;;;5091042;28;20439;-74
2024/01/03 07:37:27;;;;;;;1.80;0.50;;;9.30;99.90;;;;;;5091132;28;21197;-74
2024/01/03 07:39:53;;;;;;;1.17;0.70;;;9.30;99.90;;;;;;5091205;28;20257;-74
2024/01/03 07:42:18;;;;;;;1.13;0.50;;;9.40;99.90;;;;;;5089950;28;20186;-74
2024/01/03 07:44:44;;;;;;;1.97;0.60;;;9.40;99.90;;;;;;5089568;28;20194;-74
2024/01/03 07:47:10;;;;;;;1.10;0.70;;;9.40;99.90;;;;;;5090659;28;20719;-74
2024/01/03 07:49:37;;;;;;;2.50;0.60;;;9.40;99.90;;;;;;5090753;28;20255;-74
2024/01/03 07:52:03;;;;;;;0.70;0.50;;;9.50;99.90;;;;;;5089005;28;20506;-74
2024/01/03 07:54:28;;;;;;;5.37;1.53;;;9.40;99.90;;;;;;5090488;28;20413;-74
2024/01/03 07:56:54;;;;;;;3.57;1.87;;;9.40;99.90;;;;;;5090229;28;20444;-74
2024/01/03 07:59:20;;;;;;;3.20;2.90;;;9.50;99.90;;;;;;5089099;28;20182;-74
2024/01/03 08:01:45;;;;;;;1.43;0.70;;;9.50;99.90;;;;;;5088916;28;20568;-74
2024/01/03 08:04:11;;;;;;;2.50;0.73;;;9.50;99.90;;;;;;5072346;28;20261;-73
2024/01/03 08:06:36;;;;;;;17.77;11.37;;;9.60;99.90;;;;;;5088777;28;20244;-75
2024/01/03 08:09:02;;;;;;;2.50;0.50;;;9.70;99.90;;;;;;5071753;28;20183;-73
2024/01/03 08:11:28;;;;;;;1.00;0.50;;;9.80;99.90;;;;;;5071917;28;20193;-75
2024/01/03 08:13:54;;;;;;;2.00;0.73;;;9.90;99.90;;;;;;5088497;28;20192;-75
2024/01/03 08:16:20;;;;;;;2.40;0.73;;;9.90;99.90;;;;;;5089810;28;20425;-75
2024/01/03 08:18:46;;;;;;;4.03;0.60;;;9.90;99.90;;;;;;5088425;28;20298;-75
2024/01/03 08:21:12;;;;;;;4.87;1.10;;;9.90;99.90;;;;;;5088512;28;20668;-74
2024/01/03 08:23:37;;;;;;;2.60;0.87;;;10.00;99.90;;;;;;5088726;28;20405;-74
2024/01/03 08:26:10;;;;;;;2.60;0.93;;;10.00;99.90;;;;;;5089840;28;20214;-75
2024/01/03 08:28:40;;;;;;;1.40;0.70;;;10.00;99.90;;;;;;5089986;28;20565;-75
2024/01/03 08:31:13;;;;;;;3.67;0.83;;;10.00;99.90;;;;;;5088202;28;20424;-74
2024/01/03 08:33:39;;;;;;;2.03;0.83;;;10.00;99.90;;;;;;5089719;28;20483;-74
2024/01/03 08:36:06;;;;;;;3.10;0.83;;;9.90;99.90;;;;;;5088034;28;20456;-75
2024/01/03 08:38:32;;;;;;;1.77;0.70;;;10.00;99.90;;;;;;5088459;28;20650;-75
2024/01/03 08:40:57;;;;;;;2.33;0.70;;;10.00;99.90;;;;;;5071327;28;20435;-75
2024/01/03 08:43:23;;;;;;;2.13;0.50;;;10.10;99.90;;;;;;5087893;28;20201;-74
2024/01/03 08:45:48;;;;;;;2.37;0.80;;;10.00;99.90;;;;;;5089064;28;20193;-74
2024/01/03 08:48:14;;;;;;;6.97;0.80;;;10.00;99.90;;;;;;5069456;28;20269;-74
2024/01/03 08:50:41;;;;;;;5.33;1.03;;;10.00;99.90;;;;;;5088173;28;20197;-74
2024/01/03 08:53:06;;;;;;;2.43;1.00;;;10.00;99.90;;;;;;5086451;28;20262;-74
2024/01/03 08:55:32;;;;;;;4.13;0.80;;;10.00;99.90;;;;;;5086706;28;20576;-74
2024/01/03 08:57:58;;;;;;;4.47;1.03;;;10.00;99.90;;;;;;5087837;28;20210;-74
2024/01/03 09:00:27;;;;;;;1.53;0.87;;;10.00;99.90;;;;;;5086239;28;20643;-74
2024/01/03 09:02:57;;;;;;;4.23;1.00;;;10.00;99.90;;;;;;5086357;28;20193;-74
2024/01/03 09:05:22;;;;;;;3.50;0.73;;;9.90;99.90;;;;;;5086697;28;20809;-74
2024/01/03 09:07:48;;;;;;;1.40;0.73;;;9.80;99.90;;;;;;5086151;28;20451;-74
2024/01/03 09:10:14;;;;;;;2.27;0.97;;;9.70;99.90;;;;;;5087480;28;20191;-74
2024/01/03 09:12:40;;;;;;;4.47;0.80;;;9.70;99.90;;;;;;5085953;28;20851;-74
2024/01/03 09:15:06;;;;;;;4.53;0.97;;;9.70;99.90;;;;;;5087412;28;20656;-74
2024/01/03 09:17:32;;;;;;;2.57;0.70;;;9.60;99.90;;;;;;5087496;28;21117;-74
2024/01/03 09:19:57;;;;;;;4.07;0.77;;;9.50;99.90;;;;;;5085547;28;20429;-74
2024/01/03 09:22:23;;;;;;;5.07;0.87;;;9.50;99.90;;;;;;5087211;28;20179;-74
2024/01/03 09:24:49;;;;;;;4.73;0.83;;;9.40;99.90;;;;;;5085884;28;20609;-74
2024/01/03 09:27:14;;;;;;;3.93;1.33;;;9.30;99.90;;;;;;5087366;28;20203;-74
2024/01/03 09:29:41;;;;;;;3.33;0.70;;;9.40;99.90;;;;;;5087354;28;20183;-75
2024/01/03 09:32:07;;;;;;;3.83;0.80;;;9.40;99.90;;;;;;5087383;28;20286;-74
2024/01/03 09:34:39;;;;;;;7.40;0.97;;;9.40;99.90;;;;;;5087199;28;20419;-74
2024/01/03 09:37:06;;;;;;;5.10;1.20;;;9.50;99.90;;;;;;5086953;28;21208;-74
2024/01/03 09:39:32;;;;;;;5.50;1.57;;;9.50;99.90;;;;;;5069398;28;20425;-74
2024/01/03 09:41:58;;;;;;;3.37;0.83;;;9.60;99.90;;;;;;5069437;28;20417;-74
2024/01/03 09:44:26;;;;;;;1.70;0.67;;;9.60;99.90;;;;;;5086258;28;20504;-74
2024/01/03 09:46:51;;;;;;;7.10;1.30;;;9.50;99.90;;;;;;5086374;28;20440;-74
2024/01/03 09:49:18;;;;;;;3.00;0.80;;;9.60;99.90;;;;;;5087924;28;20458;-73
2024/01/03 09:51:46;;;;;;;9.30;1.30;;;9.70;99.90;;;;;;5087729;28;20190;-74
2024/01/03 09:54:12;;;;;;;2.27;1.03;;;9.60;99.90;;;;;;5086354;28;20422;-74
2024/01/03 09:56:40;;;;;;;1.83;0.60;;;9.80;99.90;;;;;;5087512;28;20437;-75
2024/01/03 09:59:06;;;;;;;4.73;1.27;;;9.80;99.90;;;;;;5087606;28;20435;-74
2024/01/03 10:01:32;;;;;;;2.83;0.70;;;9.80;99.90;;;;;;5087224;28;20924;-74
2024/01/03 10:03:58;;;;;;;4.00;1.40;;;9.80;99.90;;;;;;5086051;28;20189;-74
2024/01/03 10:06:24;;;;;;;7.20;1.00;;;9.80;99.90;;;;;;5087290;28;20448;-74
2024/01/03 10:09:03;;;;;;;5.33;0.90;;;9.80;99.90;;;;;;5087316;28;20225;-74
2024/01/03 10:11:29;;;;;;;1.17;0.60;;;9.80;99.90;;;;;;5087664;28;20185;-74
2024/01/03 10:13:55;;;;;;;2.50;0.90;;;9.70;99.90;;;;;;5087496;28;20822;-74
2024/01/03 10:16:26;;;;;;;3.53;0.83;;;9.70;99.90;;;;;;5087653;28;21013;-74
2024/01/03 10:19:10;;;;;;;3.77;0.87;;;9.70;99.90;;;;;;5087538;28;20418;-74
2024/01/03 10:21:49;;;;;;;3.73;0.87;;;9.70;99.90;;;;;;5085881;28;20458;-74
2024/01/03 10:24:16;;;;;;;5.23;0.73;;;9.60;99.90;;;;;;5087735;28;20508;-73
2024/01/03 10:26:42;;;;;;;2.90;0.70;;;9.60;99.90;;;;;;5087347;28;20996;-73
2024/01/03 10:29:16;;;;;;;7.07;1.07;;;9.70;99.90;;;;;;5087392;28;20444;-73
2024/01/03 10:31:43;;;;;;;2.10;0.50;;;9.70;99.90;;;;;;5087352;28;20803;-74
2024/01/03 10:34:15;;;;;;;1.57;0.87;;;9.70;99.90;;;;;;5091518;28;20424;-74
2024/01/03 10:36:42;;;;;;;1.90;0.80;;;9.80;99.90;;;;;;5089914;28;20502;-75
2024/01/03 10:39:13;;;;;;;3.60;1.43;;;10.00;99.90;;;;;;5090259;28;20449;-73
2024/01/03 10:41:40;;;;;;;2.37;0.70;;;9.90;99.90;;;;;;5090124;28;20434;-74
2024/01/03 10:44:08;;;;;;;2.50;0.97;;;10.00;99.90;;;;;;5089938;28;20524;-74
2024/01/03 10:46:33;;;;;;;2.60;0.97;;;10.10;99.90;;;;;;5089553;28;20435;-74
2024/01/03 10:49:01;;;;;;;2.93;1.20;;;10.10;99.90;;;;;;5090659;28;20420;-74
2024/01/03 10:51:32;;;;;;;6.63;0.57;;;10.30;99.90;;;;;;5089332;28;20739;-74
2024/01/03 10:53:59;;;;;;;2.77;1.00;;;10.70;99.90;;;;;;5090835;28;20472;-74
2024/01/03 10:56:25;;;;;;;0.97;0.60;;;10.80;99.90;;;;;;5090779;28;20447;-74
2024/01/03 10:58:52;;;;;;;1.67;0.53;;;10.90;99.90;;;;;;5091258;28;20417;-74
2024/01/03 11:01:21;;;;;;;2.63;0.80;;;11.00;99.90;;;;;;5091375;28;20184;-74
2024/01/03 11:04:18;;;;;;;2.47;0.83;;;10.90;99.90;;;;;;5090290;28;21032;-73
2024/01/03 11:06:53;;;;;;;5.57;0.87;;;11.40;99.90;;;;;;5089917;28;20441;-74
2024/01/03 11:09:19;;;;;;;4.10;0.87;;;12.00;99.90;;;;;;5089913;28;20437;-74
2024/01/03 11:11:44;;;;;;;1.90;0.50;;;12.40;99.90;;;;;;5088387;28;20424;-74
2024/01/03 11:14:16;;;;;;;8.33;1.03;;;13.00;99.90;;;;;;5088729;28;20487;-75
2024/01/03 11:16:42;;;;;;;3.47;0.90;;;12.70;99.90;;;;;;5088306;28;20622;-75
2024/01/03 11:19:08;;;;;;;1.73;0.80;;;12.50;99.90;;;;;;5090110;28;20421;-75
2024/01/03 11:21:37;;;;;;;3.67;0.93;;;12.60;99.90;;;;;;5088312;28;20178;-75
2024/01/03 11:24:06;;;;;;;6.23;1.10;;;12.90;99.90;;;;;;5088535;28;21277;-75
2024/01/03 11:27:03;;;;;;;2.90;0.60;;;13.30;99.90;;;;;;5089688;28;20435;-74
2024/01/03 11:29:35;;;;;;;2.17;0.73;;;13.50;99.90;;;;;;5087858;28;21083;-74
2024/01/03 11:32:24;;;;;;;4.93;1.10;;;13.70;99.90;;;;;;5089595;28;21308;-76
2024/01/03 11:34:50;;;;;;;4.30;0.87;;;13.30;99.90;;;;;;5071572;28;20873;-75
2024/01/03 11:37:18;;;;;;;2.30;0.63;;;13.30;99.90;;;;;;5088024;28;20497;-75
2024/01/03 11:39:46;;;;;;;5.43;0.90;;;13.80;99.90;;;;;;5089878;28;20277;-75
2024/01/03 11:42:28;;;;;;;1.43;0.87;;;15.20;99.90;;;;;;5089701;28;20802;-75
2024/01/03 11:45:07;;;;;;;1.10;0.60;;;16.10;99.90;;;;;;5089194;28;20415;-75
2024/01/03 11:47:38;;;;;;;4.40;0.70;;;17.00;99.90;;;;;;5088279;28;20444;-75
2024/01/03 11:50:05;;;;;;;3.27;0.93;;;17.10;99.90;;;;;;5088475;28;20554;-74
2024/01/03 11:52:33;;;;;;;2.27;0.93;;;16.20;99.60;;;;;;5088215;28;20464;-75
2024/01/03 11:55:06;;;;;;;2.70;0.70;;;16.10;99.90;;;;;;5088228;28;20436;-75
2024/01/03 11:57:32;;;;;;;4.10;0.97;;;15.80;99.90;;;;;;5088202;28;20448;-74
2024/01/03 12:00:02;;;;;;;2.50;0.90;;;15.30;99.90;;;;;;5088369;28;20515;-74
2024/01/03 12:02:28;;;;;;;3.03;1.00;;;14.60;99.90;;;;;;5089658;28;20511;-75
2024/01/03 12:05:04;;;;;;;2.17;1.17;;;14.00;99.90;;;;;;5090130;28;20462;-74
2024/01/03 12:07:35;;;;;;;2.73;1.00;;;13.10;99.90;;;;;;5090202;28;21129;-74
2024/01/03 12:10:05;;;;;;;2.13;0.53;;;12.60;99.90;;;;;;5089232;28;20430;-75
2024/01/03 12:12:32;;;;;;;3.70;0.60;;;12.30;99.90;;;;;;5088620;28;20471;-74
2024/01/03 12:14:58;;;;;;;1.83;0.70;;;12.10;99.90;;;;;;5089312;28;20480;-74
2024/01/03 12:17:33;;;;;;;6.70;0.70;;;12.10;99.90;;;;;;5089153;28;20494;-74
2024/01/03 12:20:13;;;;;;;2.50;0.60;;;11.90;99.90;;;;;;5089430;28;20418;-74
2024/01/03 12:22:39;;;;;;;1.47;0.60;;;11.70;99.90;;;;;;5071310;28;21010;-75
2024/01/03 12:25:05;;;;;;;3.27;0.60;;;11.50;99.90;;;;;;5089017;28;20768;-74
2024/01/03 12:27:32;;;;;;;1.57;0.50;;;11.20;99.90;;;;;;5089078;28;20488;-76
2024/01/03 12:30:16;;;;;;;1.00;0.60;;;11.20;99.90;;;;;;5087380;28;20853;-74
2024/01/03 12:32:42;;;;;;;2.03;0.50;;;10.70;99.90;;;;;;5089220;28;20458;-75
2024/01/03 12:35:09;;;;;;;2.10;0.70;;;10.70;99.90;;;;;;5088934;28;20471;-75
2024/01/03 12:37:34;;;;;;;2.80;0.70;;;10.60;99.90;;;;;;5088695;28;21164;-76
2024/01/03 12:40:00;;;;;;;1.67;0.40;;;10.60;99.90;;;;;;5087478;28;20424;-76
2024/01/03 12:42:25;;;;;;;2.03;0.70;;;10.70;99.90;;;;;;5087662;28;20280;-74
2024/01/03 12:44:51;;;;;;;3.43;0.77;;;10.80;99.90;;;;;;5087310;28;20674;-74
2024/01/03 12:47:17;;;;;;;1.93;0.50;;;11.00;99.90;;;;;;5088518;28;20213;-74
2024/01/03 12:49:42;;;;;;;1.63;0.70;;;11.00;99.90;;;;;;5088750;28;20662;-74
2024/01/03 12:52:09;;;;;;;3.50;0.90;;;11.00;99.90;;;;;;5070427;28;20281;-74
2024/01/03 12:54:36;;;;;;;2.80;0.80;;;11.10;99.90;;;;;;5087891;28;20205;-74